sensor_id;sensor_type;location;lat;lon;timestamp;P1;P2;P0
48155;PMS5003;35568;48.104;11.782;2023-05-17T00:00:44;6;6;
48155;PMS5003;35568;48.104;11.782;2023-05-17T00:03:10;5;5;
48155;PMS5003;35568;48.104;11.782;2023-05-17T00:05:38;5;5;
48155;PMS5003;35568;48.104;11.782;2023-05-17T00:08:05;5;5;
48155;PMS5003;35568;48.104;11.782;2023-05-17T00:10:31;5;4;
48155;PMS5003;35568;48.104;11.782;2023-05-17T00:12:58;4;4;
48155;PMS5003;35568;48.104;11.782;2023-05-17T00:15:25;7;6;
48155;PMS5003;35568;48.104;11.782;2023-05-17T00:17:52;4;4;
48155;PMS5003;35568;48.104;11.782;2023-05-17T00:20:19;5;5;
48155;PMS5003;35568;48.104;11.782;2023-05-17T00:22:45;7;6;
48155;PMS5003;35568;48.104;11.782;2023-05-17T00:25:13;4;4;
48155;PMS5003;35568;48.104;11.782;2023-05-17T00:27:40;9;7;
48155;PMS5003;35568;48.104;11.782;2023-05-17T00:30:07;6;6;
48155;PMS5003;35568;48.104;11.782;2023-05-17T00:32:34;6;6;
48155;PMS5003;35568;48.104;11.782;2023-05-17T00:35:02;5;5;
48155;PMS5003;35568;48.104;11.782;2023-05-17T00:37:29;6;5;
48155;PMS5003;35568;48.104;11.782;2023-05-17T00:39:56;7;7;
48155;PMS5003;35568;48.104;11.782;2023-05-17T00:42:23;6;6;
48155;PMS5003;35568;48.104;11.782;2023-05-17T00:44:50;6;5;
48155;PMS5003;35568;48.104;11.782;2023-05-17T00:47:17;5;5;
48155;PMS5003;35568;48.104;11.782;2023-05-17T00:49:44;5;5;
48155;PMS5003;35568;48.104;11.782;2023-05-17T00:52:11;4;4;
48155;PMS5003;35568;48.104;11.782;2023-05-17T00:54:38;5;5;
48155;PMS5003;35568;48.104;11.782;2023-05-17T00:57:05;4;4;
48155;PMS5003;35568;48.104;11.782;2023-05-17T00:59:34;5;5;
48155;PMS5003;35568;48.104;11.782;2023-05-17T01:02:02;5;5;
48155;PMS5003;35568;48.104;11.782;2023-05-17T01:04:29;5;5;
48155;PMS5003;35568;48.104;11.782;2023-05-17T01:06:57;5;5;
48155;PMS5003;35568;48.104;11.782;2023-05-17T01:09:24;5;5;
48155;PMS5003;35568;48.104;11.782;2023-05-17T01:11:53;5;5;
48155;PMS5003;35568;48.104;11.782;2023-05-17T01:14:40;5;5;
48155;PMS5003;35568;48.104;11.782;2023-05-17T01:17:14;6;6;
48155;PMS5003;35568;48.104;11.782;2023-05-17T01:19:54;7;7;
48155;PMS5003;35568;48.104;11.782;2023-05-17T01:22:31;8;8;
48155;PMS5003;35568;48.104;11.782;2023-05-17T01:25:10;4;4;
48155;PMS5003;35568;48.104;11.782;2023-05-17T01:27:47;4;4;
48155;PMS5003;35568;48.104;11.782;2023-05-17T01:30:15;4;4;
48155;PMS5003;35568;48.104;11.782;2023-05-17T01:32:45;5;5;
48155;PMS5003;35568;48.104;11.782;2023-05-17T01:35:13;7;6;
48155;PMS5003;35568;48.104;11.782;2023-05-17T01:37:41;5;5;
48155;PMS5003;35568;48.104;11.782;2023-05-17T01:40:08;5;5;
48155;PMS5003;35568;48.104;11.782;2023-05-17T01:42:36;6;6;
48155;PMS5003;35568;48.104;11.782;2023-05-17T01:45:08;6;6;
48155;PMS5003;35568;48.104;11.782;2023-05-17T01:47:42;7;6;
48155;PMS5003;35568;48.104;11.782;2023-05-17T01:50:18;7;7;
48155;PMS5003;35568;48.104;11.782;2023-05-17T01:52:49;4;4;
48155;PMS5003;35568;48.104;11.782;2023-05-17T01:55:22;5;5;
48155;PMS5003;35568;48.104;11.782;2023-05-17T01:57:55;3;3;
48155;PMS5003;35568;48.104;11.782;2023-05-17T02:00:23;6;6;
48155;PMS5003;35568;48.104;11.782;2023-05-17T02:02:51;8;8;
48155;PMS5003;35568;48.104;11.782;2023-05-17T02:05:18;6;6;
48155;PMS5003;35568;48.104;11.782;2023-05-17T02:07:45;6;6;
48155;PMS5003;35568;48.104;11.782;2023-05-17T02:10:12;4;4;
48155;PMS5003;35568;48.104;11.782;2023-05-17T02:12:39;5;5;
48155;PMS5003;35568;48.104;11.782;2023-05-17T02:15:06;5;5;
48155;PMS5003;35568;48.104;11.782;2023-05-17T02:17:34;4;4;
48155;PMS5003;35568;48.104;11.782;2023-05-17T02:20:01;5;4;
48155;PMS5003;35568;48.104;11.782;2023-05-17T02:22:27;7;7;
48155;PMS5003;35568;48.104;11.782;2023-05-17T02:24:54;8;7;
48155;PMS5003;35568;48.104;11.782;2023-05-17T02:27:21;6;5;
48155;PMS5003;35568;48.104;11.782;2023-05-17T02:29:48;5;5;
48155;PMS5003;35568;48.104;11.782;2023-05-17T02:32:15;7;7;
48155;PMS5003;35568;48.104;11.782;2023-05-17T02:34:42;5;4;
48155;PMS5003;35568;48.104;11.782;2023-05-17T02:37:09;6;6;
48155;PMS5003;35568;48.104;11.782;2023-05-17T02:39:36;5;5;
48155;PMS5003;35568;48.104;11.782;2023-05-17T02:42:03;7;7;
48155;PMS5003;35568;48.104;11.782;2023-05-17T02:44:30;5;5;
48155;PMS5003;35568;48.104;11.782;2023-05-17T02:46:57;4;4;
48155;PMS5003;35568;48.104;11.782;2023-05-17T02:49:25;4;4;
48155;PMS5003;35568;48.104;11.782;2023-05-17T02:51:52;7;6;
48155;PMS5003;35568;48.104;11.782;2023-05-17T02:54:19;5;5;
48155;PMS5003;35568;48.104;11.782;2023-05-17T02:56:45;5;5;
48155;PMS5003;35568;48.104;11.782;2023-05-17T02:59:13;5;5;
48155;PMS5003;35568;48.104;11.782;2023-05-17T03:03:01;7;6;
48155;PMS5003;35568;48.104;11.782;2023-05-17T03:05:28;6;6;
48155;PMS5003;35568;48.104;11.782;2023-05-17T03:07:54;6;6;
48155;PMS5003;35568;48.104;11.782;2023-05-17T03:10:21;7;7;
48155;PMS5003;35568;48.104;11.782;2023-05-17T03:12:48;7;7;
48155;PMS5003;35568;48.104;11.782;2023-05-17T03:15:15;7;7;
48155;PMS5003;35568;48.104;11.782;2023-05-17T03:17:42;6;6;
48155;PMS5003;35568;48.104;11.782;2023-05-17T03:20:09;6;6;
48155;PMS5003;35568;48.104;11.782;2023-05-17T03:22:36;5;4;
48155;PMS5003;35568;48.104;11.782;2023-05-17T03:25:03;5;5;
48155;PMS5003;35568;48.104;11.782;2023-05-17T03:27:31;5;5;
48155;PMS5003;35568;48.104;11.782;2023-05-17T03:29:57;4;4;
48155;PMS5003;35568;48.104;11.782;2023-05-17T03:32:24;4;4;
48155;PMS5003;35568;48.104;11.782;2023-05-17T03:34:51;7;7;
48155;PMS5003;35568;48.104;11.782;2023-05-17T03:37:18;8;6;
48155;PMS5003;35568;48.104;11.782;2023-05-17T03:39:45;5;5;
48155;PMS5003;35568;48.104;11.782;2023-05-17T03:42:11;6;5;
48155;PMS5003;35568;48.104;11.782;2023-05-17T03:44:39;6;5;
48155;PMS5003;35568;48.104;11.782;2023-05-17T03:47:06;4;4;
48155;PMS5003;35568;48.104;11.782;2023-05-17T03:49:33;4;4;
48155;PMS5003;35568;48.104;11.782;2023-05-17T03:52:00;5;4;
48155;PMS5003;35568;48.104;11.782;2023-05-17T03:54:27;5;5;
48155;PMS5003;35568;48.104;11.782;2023-05-17T03:56:54;7;6;
48155;PMS5003;35568;48.104;11.782;2023-05-17T03:59:21;5;5;
48155;PMS5003;35568;48.104;11.782;2023-05-17T04:01:47;4;3;
48155;PMS5003;35568;48.104;11.782;2023-05-17T04:04:14;8;7;
48155;PMS5003;35568;48.104;11.782;2023-05-17T04:06:41;5;5;
48155;PMS5003;35568;48.104;11.782;2023-05-17T04:09:08;5;3;
48155;PMS5003;35568;48.104;11.782;2023-05-17T04:11:35;6;6;
48155;PMS5003;35568;48.104;11.782;2023-05-17T04:14:02;4;4;
48155;PMS5003;35568;48.104;11.782;2023-05-17T04:16:30;4;4;
48155;PMS5003;35568;48.104;11.782;2023-05-17T04:18:58;6;6;
48155;PMS5003;35568;48.104;11.782;2023-05-17T04:21:25;4;4;
48155;PMS5003;35568;48.104;11.782;2023-05-17T04:23:51;4;4;
48155;PMS5003;35568;48.104;11.782;2023-05-17T04:26:18;5;5;
48155;PMS5003;35568;48.104;11.782;2023-05-17T04:28:45;5;5;
48155;PMS5003;35568;48.104;11.782;2023-05-17T04:31:12;3;3;
48155;PMS5003;35568;48.104;11.782;2023-05-17T04:33:40;3;3;
48155;PMS5003;35568;48.104;11.782;2023-05-17T04:36:07;5;4;
48155;PMS5003;35568;48.104;11.782;2023-05-17T04:38:34;3;3;
48155;PMS5003;35568;48.104;11.782;2023-05-17T04:41:01;3;3;
48155;PMS5003;35568;48.104;11.782;2023-05-17T04:43:28;6;4;
48155;PMS5003;35568;48.104;11.782;2023-05-17T04:45:56;6;5;
48155;PMS5003;35568;48.104;11.782;2023-05-17T04:48:24;6;5;
48155;PMS5003;35568;48.104;11.782;2023-05-17T04:50:52;5;5;
48155;PMS5003;35568;48.104;11.782;2023-05-17T04:53:19;4;3;
48155;PMS5003;35568;48.104;11.782;2023-05-17T04:55:46;4;4;
48155;PMS5003;35568;48.104;11.782;2023-05-17T04:58:13;3;3;
48155;PMS5003;35568;48.104;11.782;2023-05-17T05:00:40;5;5;
48155;PMS5003;35568;48.104;11.782;2023-05-17T05:03:07;4;3;
48155;PMS5003;35568;48.104;11.782;2023-05-17T05:05:34;6;6;
48155;PMS5003;35568;48.104;11.782;2023-05-17T05:08:01;3;3;
48155;PMS5003;35568;48.104;11.782;2023-05-17T05:10:28;3;3;
48155;PMS5003;35568;48.104;11.782;2023-05-17T05:12:54;5;5;
48155;PMS5003;35568;48.104;11.782;2023-05-17T05:15:21;4;4;
48155;PMS5003;35568;48.104;11.782;2023-05-17T05:17:48;6;5;
48155;PMS5003;35568;48.104;11.782;2023-05-17T05:20:15;5;5;
48155;PMS5003;35568;48.104;11.782;2023-05-17T05:22:42;2;2;
48155;PMS5003;35568;48.104;11.782;2023-05-17T05:25:09;3;3;
48155;PMS5003;35568;48.104;11.782;2023-05-17T05:27:36;5;4;
48155;PMS5003;35568;48.104;11.782;2023-05-17T05:30:03;2;2;
48155;PMS5003;35568;48.104;11.782;2023-05-17T05:32:30;3;3;
48155;PMS5003;35568;48.104;11.782;2023-05-17T05:34:57;2;2;
48155;PMS5003;35568;48.104;11.782;2023-05-17T05:37:24;2;2;
48155;PMS5003;35568;48.104;11.782;2023-05-17T05:39:50;6;6;
48155;PMS5003;35568;48.104;11.782;2023-05-17T05:42:17;4;3;
48155;PMS5003;35568;48.104;11.782;2023-05-17T05:44:44;3;3;
48155;PMS5003;35568;48.104;11.782;2023-05-17T05:47:11;4;4;
48155;PMS5003;35568;48.104;11.782;2023-05-17T05:49:37;7;4;
48155;PMS5003;35568;48.104;11.782;2023-05-17T05:52:04;4;4;
48155;PMS5003;35568;48.104;11.782;2023-05-17T05:54:31;5;5;
48155;PMS5003;35568;48.104;11.782;2023-05-17T05:56:58;3;3;
48155;PMS5003;35568;48.104;11.782;2023-05-17T05:59:25;5;5;
48155;PMS5003;35568;48.104;11.782;2023-05-17T06:01:52;3;3;
48155;PMS5003;35568;48.104;11.782;2023-05-17T06:04:19;3;3;
48155;PMS5003;35568;48.104;11.782;2023-05-17T06:06:46;4;4;
48155;PMS5003;35568;48.104;11.782;2023-05-17T06:09:13;3;3;
48155;PMS5003;35568;48.104;11.782;2023-05-17T06:11:39;3;3;
48155;PMS5003;35568;48.104;11.782;2023-05-17T06:14:06;3;3;
48155;PMS5003;35568;48.104;11.782;2023-05-17T06:16:33;4;4;
48155;PMS5003;35568;48.104;11.782;2023-05-17T06:19:00;4;4;
48155;PMS5003;35568;48.104;11.782;2023-05-17T06:21:27;3;3;
48155;PMS5003;35568;48.104;11.782;2023-05-17T06:23:54;2;2;
48155;PMS5003;35568;48.104;11.782;2023-05-17T06:26:20;4;3;
48155;PMS5003;35568;48.104;11.782;2023-05-17T06:28:47;4;4;
48155;PMS5003;35568;48.104;11.782;2023-05-17T06:31:14;3;3;
48155;PMS5003;35568;48.104;11.782;2023-05-17T06:33:41;3;3;
48155;PMS5003;35568;48.104;11.782;2023-05-17T06:36:08;3;3;
48155;PMS5003;35568;48.104;11.782;2023-05-17T06:38:34;3;3;
48155;PMS5003;35568;48.104;11.782;2023-05-17T06:41:01;3;3;
48155;PMS5003;35568;48.104;11.782;2023-05-17T06:43:28;4;4;
48155;PMS5003;35568;48.104;11.782;2023-05-17T06:45:55;5;5;
48155;PMS5003;35568;48.104;11.782;2023-05-17T06:48:22;4;4;
48155;PMS5003;35568;48.104;11.782;2023-05-17T06:50:49;4;4;
48155;PMS5003;35568;48.104;11.782;2023-05-17T06:53:17;3;3;
48155;PMS5003;35568;48.104;11.782;2023-05-17T06:55:44;5;5;
48155;PMS5003;35568;48.104;11.782;2023-05-17T06:58:10;3;3;
48155;PMS5003;35568;48.104;11.782;2023-05-17T07:00:37;2;2;
48155;PMS5003;35568;48.104;11.782;2023-05-17T07:03:04;2;2;
48155;PMS5003;35568;48.104;11.782;2023-05-17T07:05:31;3;3;
48155;PMS5003;35568;48.104;11.782;2023-05-17T07:07:58;3;3;
48155;PMS5003;35568;48.104;11.782;2023-05-17T07:10:24;3;3;
48155;PMS5003;35568;48.104;11.782;2023-05-17T07:12:51;4;4;
48155;PMS5003;35568;48.104;11.782;2023-05-17T07:15:19;4;4;
48155;PMS5003;35568;48.104;11.782;2023-05-17T07:17:46;3;3;
48155;PMS5003;35568;48.104;11.782;2023-05-17T07:20:13;2;2;
48155;PMS5003;35568;48.104;11.782;2023-05-17T07:22:39;3;3;
48155;PMS5003;35568;48.104;11.782;2023-05-17T07:25:07;2;2;
48155;PMS5003;35568;48.104;11.782;2023-05-17T07:27:35;2;2;
48155;PMS5003;35568;48.104;11.782;2023-05-17T07:30:02;3;3;
48155;PMS5003;35568;48.104;11.782;2023-05-17T07:32:29;3;3;
48155;PMS5003;35568;48.104;11.782;2023-05-17T07:34:56;2;2;
48155;PMS5003;35568;48.104;11.782;2023-05-17T07:37:23;3;3;
48155;PMS5003;35568;48.104;11.782;2023-05-17T07:39:50;3;3;
48155;PMS5003;35568;48.104;11.782;2023-05-17T07:42:16;3;3;
48155;PMS5003;35568;48.104;11.782;2023-05-17T07:44:43;3;3;
48155;PMS5003;35568;48.104;11.782;2023-05-17T07:47:10;3;3;
48155;PMS5003;35568;48.104;11.782;2023-05-17T07:49:37;1;1;
48155;PMS5003;35568;48.104;11.782;2023-05-17T07:52:04;3;3;
48155;PMS5003;35568;48.104;11.782;2023-05-17T07:54:31;4;4;
48155;PMS5003;35568;48.104;11.782;2023-05-17T07:56:58;3;3;
48155;PMS5003;35568;48.104;11.782;2023-05-17T07:59:25;2;2;
48155;PMS5003;35568;48.104;11.782;2023-05-17T08:01:52;2;2;
48155;PMS5003;35568;48.104;11.782;2023-05-17T08:04:20;3;3;
48155;PMS5003;35568;48.104;11.782;2023-05-17T08:06:46;2;2;
48155;PMS5003;35568;48.104;11.782;2023-05-17T08:09:13;4;4;
48155;PMS5003;35568;48.104;11.782;2023-05-17T08:11:41;4;3;
48155;PMS5003;35568;48.104;11.782;2023-05-17T08:14:08;6;6;
48155;PMS5003;35568;48.104;11.782;2023-05-17T08:16:35;4;4;
48155;PMS5003;35568;48.104;11.782;2023-05-17T08:19:02;3;3;
48155;PMS5003;35568;48.104;11.782;2023-05-17T08:21:28;2;2;
48155;PMS5003;35568;48.104;11.782;2023-05-17T08:23:56;3;2;
48155;PMS5003;35568;48.104;11.782;2023-05-17T08:26:23;4;4;
48155;PMS5003;35568;48.104;11.782;2023-05-17T08:28:50;2;2;
48155;PMS5003;35568;48.104;11.782;2023-05-17T08:31:17;4;4;
48155;PMS5003;35568;48.104;11.782;2023-05-17T08:33:44;3;3;
48155;PMS5003;35568;48.104;11.782;2023-05-17T08:36:11;3;3;
48155;PMS5003;35568;48.104;11.782;2023-05-17T08:38:37;4;4;
48155;PMS5003;35568;48.104;11.782;2023-05-17T08:41:04;3;3;
48155;PMS5003;35568;48.104;11.782;2023-05-17T08:43:31;3;3;
48155;PMS5003;35568;48.104;11.782;2023-05-17T08:45:58;4;4;
48155;PMS5003;35568;48.104;11.782;2023-05-17T08:48:25;4;4;
48155;PMS5003;35568;48.104;11.782;2023-05-17T08:50:53;3;3;
48155;PMS5003;35568;48.104;11.782;2023-05-17T08:53:21;2;2;
48155;PMS5003;35568;48.104;11.782;2023-05-17T08:55:49;3;3;
48155;PMS5003;35568;48.104;11.782;2023-05-17T08:58:20;5;5;
48155;PMS5003;35568;48.104;11.782;2023-05-17T09:00:53;3;3;
48155;PMS5003;35568;48.104;11.782;2023-05-17T09:03:21;3;3;
48155;PMS5003;35568;48.104;11.782;2023-05-17T09:05:50;2;2;
48155;PMS5003;35568;48.104;11.782;2023-05-17T09:08:18;6;6;
48155;PMS5003;35568;48.104;11.782;2023-05-17T09:10:46;4;4;
48155;PMS5003;35568;48.104;11.782;2023-05-17T09:13:13;5;5;
48155;PMS5003;35568;48.104;11.782;2023-05-17T09:15:41;3;3;
48155;PMS5003;35568;48.104;11.782;2023-05-17T09:18:09;4;4;
48155;PMS5003;35568;48.104;11.782;2023-05-17T09:20:36;3;3;
48155;PMS5003;35568;48.104;11.782;2023-05-17T09:23:04;4;3;
48155;PMS5003;35568;48.104;11.782;2023-05-17T09:25:32;2;2;
48155;PMS5003;35568;48.104;11.782;2023-05-17T09:27:59;3;3;
48155;PMS5003;35568;48.104;11.782;2023-05-17T09:30:27;4;3;
48155;PMS5003;35568;48.104;11.782;2023-05-17T09:32:54;4;4;
48155;PMS5003;35568;48.104;11.782;2023-05-17T09:35:26;1;1;
48155;PMS5003;35568;48.104;11.782;2023-05-17T09:37:53;5;5;
48155;PMS5003;35568;48.104;11.782;2023-05-17T09:40:28;3;3;
48155;PMS5003;35568;48.104;11.782;2023-05-17T09:42:56;4;4;
48155;PMS5003;35568;48.104;11.782;2023-05-17T09:45:24;3;3;
48155;PMS5003;35568;48.104;11.782;2023-05-17T09:47:50;3;3;
48155;PMS5003;35568;48.104;11.782;2023-05-17T09:50:18;4;4;
48155;PMS5003;35568;48.104;11.782;2023-05-17T09:52:46;5;4;
48155;PMS5003;35568;48.104;11.782;2023-05-17T09:55:12;4;4;
48155;PMS5003;35568;48.104;11.782;2023-05-17T09:57:39;4;4;
48155;PMS5003;35568;48.104;11.782;2023-05-17T10:00:07;4;4;
48155;PMS5003;35568;48.104;11.782;2023-05-17T10:02:35;5;4;
48155;PMS5003;35568;48.104;11.782;2023-05-17T10:05:04;4;4;
48155;PMS5003;35568;48.104;11.782;2023-05-17T10:07:34;3;2;
48155;PMS5003;35568;48.104;11.782;2023-05-17T10:10:03;5;5;
48155;PMS5003;35568;48.104;11.782;2023-05-17T10:12:31;4;4;
48155;PMS5003;35568;48.104;11.782;2023-05-17T10:14:59;4;3;
48155;PMS5003;35568;48.104;11.782;2023-05-17T10:17:27;2;2;
48155;PMS5003;35568;48.104;11.782;2023-05-17T10:19:55;5;5;
48155;PMS5003;35568;48.104;11.782;2023-05-17T10:22:23;4;4;
48155;PMS5003;35568;48.104;11.782;2023-05-17T10:24:51;5;5;
48155;PMS5003;35568;48.104;11.782;2023-05-17T10:27:18;3;3;
48155;PMS5003;35568;48.104;11.782;2023-05-17T10:29:46;4;4;
48155;PMS5003;35568;48.104;11.782;2023-05-17T10:32:13;6;5;
48155;PMS5003;35568;48.104;11.782;2023-05-17T10:34:41;3;3;
48155;PMS5003;35568;48.104;11.782;2023-05-17T10:37:09;5;4;
48155;PMS5003;35568;48.104;11.782;2023-05-17T10:39:37;4;4;
48155;PMS5003;35568;48.104;11.782;2023-05-17T10:42:05;3;3;
48155;PMS5003;35568;48.104;11.782;2023-05-17T10:44:34;3;3;
48155;PMS5003;35568;48.104;11.782;2023-05-17T10:47:02;3;3;
48155;PMS5003;35568;48.104;11.782;2023-05-17T10:49:30;5;4;
48155;PMS5003;35568;48.104;11.782;2023-05-17T10:51:58;4;4;
48155;PMS5003;35568;48.104;11.782;2023-05-17T10:54:37;3;3;
48155;PMS5003;35568;48.104;11.782;2023-05-17T10:57:07;3;3;
48155;PMS5003;35568;48.104;11.782;2023-05-17T10:59:34;4;4;
48155;PMS5003;35568;48.104;11.782;2023-05-17T11:02:02;4;4;
48155;PMS5003;35568;48.104;11.782;2023-05-17T11:04:32;4;3;
48155;PMS5003;35568;48.104;11.782;2023-05-17T11:07:32;3;3;
48155;PMS5003;35568;48.104;11.782;2023-05-17T11:10:03;4;4;
48155;PMS5003;35568;48.104;11.782;2023-05-17T11:12:36;3;3;
48155;PMS5003;35568;48.104;11.782;2023-05-17T11:15:05;3;3;
48155;PMS5003;35568;48.104;11.782;2023-05-17T11:17:34;2;2;
48155;PMS5003;35568;48.104;11.782;2023-05-17T11:20:03;4;4;
48155;PMS5003;35568;48.104;11.782;2023-05-17T11:22:33;2;2;
48155;PMS5003;35568;48.104;11.782;2023-05-17T11:25:05;2;2;
48155;PMS5003;35568;48.104;11.782;2023-05-17T11:27:36;3;3;
48155;PMS5003;35568;48.104;11.782;2023-05-17T11:30:08;2;2;
48155;PMS5003;35568;48.104;11.782;2023-05-17T11:32:45;3;3;
48155;PMS5003;35568;48.104;11.782;2023-05-17T11:35:15;2;2;
48155;PMS5003;35568;48.104;11.782;2023-05-17T11:37:44;4;3;
48155;PMS5003;35568;48.104;11.782;2023-05-17T11:40:11;2;2;
48155;PMS5003;35568;48.104;11.782;2023-05-17T11:42:49;2;2;
48155;PMS5003;35568;48.104;11.782;2023-05-17T11:45:40;2;2;
48155;PMS5003;35568;48.104;11.782;2023-05-17T11:48:08;1;1;
48155;PMS5003;35568;48.104;11.782;2023-05-17T11:50:37;2;2;
48155;PMS5003;35568;48.104;11.782;2023-05-17T11:53:04;1;1;
48155;PMS5003;35568;48.104;11.782;2023-05-17T11:55:31;1;1;
48155;PMS5003;35568;48.104;11.782;2023-05-17T11:57:59;1;1;
48155;PMS5003;35568;48.104;11.782;2023-05-17T12:00:28;3;3;
48155;PMS5003;35568;48.104;11.782;2023-05-17T12:02:55;3;2;
48155;PMS5003;35568;48.104;11.782;2023-05-17T12:05:22;2;2;
48155;PMS5003;35568;48.104;11.782;2023-05-17T12:07:49;6;4;
48155;PMS5003;35568;48.104;11.782;2023-05-17T12:10:16;4;4;
48155;PMS5003;35568;48.104;11.782;2023-05-17T12:12:42;2;2;
48155;PMS5003;35568;48.104;11.782;2023-05-17T12:15:14;2;1;
48155;PMS5003;35568;48.104;11.782;2023-05-17T12:17:43;3;3;
48155;PMS5003;35568;48.104;11.782;2023-05-17T12:20:13;2;2;
48155;PMS5003;35568;48.104;11.782;2023-05-17T12:22:57;2;2;
48155;PMS5003;35568;48.104;11.782;2023-05-17T12:25:25;3;3;
48155;PMS5003;35568;48.104;11.782;2023-05-17T12:27:51;1;1;
48155;PMS5003;35568;48.104;11.782;2023-05-17T12:30:20;2;2;
48155;PMS5003;35568;48.104;11.782;2023-05-17T12:32:47;4;3;
48155;PMS5003;35568;48.104;11.782;2023-05-17T12:35:15;2;2;
48155;PMS5003;35568;48.104;11.782;2023-05-17T12:37:43;2;2;
48155;PMS5003;35568;48.104;11.782;2023-05-17T12:40:10;2;2;
48155;PMS5003;35568;48.104;11.782;2023-05-17T12:42:38;0;0;
48155;PMS5003;35568;48.104;11.782;2023-05-17T12:45:06;2;2;
48155;PMS5003;35568;48.104;11.782;2023-05-17T12:47:34;3;3;
48155;PMS5003;35568;48.104;11.782;2023-05-17T12:50:01;2;2;
48155;PMS5003;35568;48.104;11.782;2023-05-17T12:52:32;2;2;
48155;PMS5003;35568;48.104;11.782;2023-05-17T12:55:01;2;2;
48155;PMS5003;35568;48.104;11.782;2023-05-17T12:57:28;0;0;
48155;PMS5003;35568;48.104;11.782;2023-05-17T12:59:55;2;2;
48155;PMS5003;35568;48.104;11.782;2023-05-17T13:02:22;2;1;
48155;PMS5003;35568;48.104;11.782;2023-05-17T13:04:49;2;2;
48155;PMS5003;35568;48.104;11.782;2023-05-17T13:07:20;1;1;
48155;PMS5003;35568;48.104;11.782;2023-05-17T13:09:48;0;0;
48155;PMS5003;35568;48.104;11.782;2023-05-17T13:12:17;1;1;
48155;PMS5003;35568;48.104;11.782;2023-05-17T13:14:46;2;2;
48155;PMS5003;35568;48.104;11.782;2023-05-17T13:17:16;2;2;
48155;PMS5003;35568;48.104;11.782;2023-05-17T13:19:43;3;3;
48155;PMS5003;35568;48.104;11.782;2023-05-17T13:22:10;2;2;
48155;PMS5003;35568;48.104;11.782;2023-05-17T13:24:37;2;2;
48155;PMS5003;35568;48.104;11.782;2023-05-17T13:27:05;1;1;
48155;PMS5003;35568;48.104;11.782;2023-05-17T13:29:33;0;0;
48155;PMS5003;35568;48.104;11.782;2023-05-17T13:32:02;1;1;
48155;PMS5003;35568;48.104;11.782;2023-05-17T13:34:30;3;2;
48155;PMS5003;35568;48.104;11.782;2023-05-17T13:36:57;2;2;
48155;PMS5003;35568;48.104;11.782;2023-05-17T13:39:24;2;0;
48155;PMS5003;35568;48.104;11.782;2023-05-17T13:41:51;2;2;
48155;PMS5003;35568;48.104;11.782;2023-05-17T13:44:17;0;0;
48155;PMS5003;35568;48.104;11.782;2023-05-17T13:46:44;2;2;
48155;PMS5003;35568;48.104;11.782;2023-05-17T13:49:11;1;1;
48155;PMS5003;35568;48.104;11.782;2023-05-17T13:51:38;2;2;
48155;PMS5003;35568;48.104;11.782;2023-05-17T13:54:05;2;2;
48155;PMS5003;35568;48.104;11.782;2023-05-17T13:56:32;1;1;
48155;PMS5003;35568;48.104;11.782;2023-05-17T13:59:00;2;2;
48155;PMS5003;35568;48.104;11.782;2023-05-17T14:01:26;3;2;
48155;PMS5003;35568;48.104;11.782;2023-05-17T14:03:53;3;3;
48155;PMS5003;35568;48.104;11.782;2023-05-17T14:06:20;2;2;
48155;PMS5003;35568;48.104;11.782;2023-05-17T14:08:46;3;1;
48155;PMS5003;35568;48.104;11.782;2023-05-17T14:11:13;0;0;
48155;PMS5003;35568;48.104;11.782;2023-05-17T14:13:40;0;0;
48155;PMS5003;35568;48.104;11.782;2023-05-17T14:16:07;2;2;
48155;PMS5003;35568;48.104;11.782;2023-05-17T14:18:33;1;1;
48155;PMS5003;35568;48.104;11.782;2023-05-17T14:21:00;2;2;
48155;PMS5003;35568;48.104;11.782;2023-05-17T14:23:27;1;1;
48155;PMS5003;35568;48.104;11.782;2023-05-17T14:25:54;1;1;
48155;PMS5003;35568;48.104;11.782;2023-05-17T14:28:21;1;1;
48155;PMS5003;35568;48.104;11.782;2023-05-17T14:30:48;0;0;
48155;PMS5003;35568;48.104;11.782;2023-05-17T14:33:15;2;2;
48155;PMS5003;35568;48.104;11.782;2023-05-17T14:35:41;1;1;
48155;PMS5003;35568;48.104;11.782;2023-05-17T14:38:08;1;1;
48155;PMS5003;35568;48.104;11.782;2023-05-17T14:40:35;1;1;
48155;PMS5003;35568;48.104;11.782;2023-05-17T14:43:02;2;2;
48155;PMS5003;35568;48.104;11.782;2023-05-17T14:45:28;1;1;
48155;PMS5003;35568;48.104;11.782;2023-05-17T14:47:55;3;3;
48155;PMS5003;35568;48.104;11.782;2023-05-17T14:50:22;2;1;
48155;PMS5003;35568;48.104;11.782;2023-05-17T14:52:48;1;1;
48155;PMS5003;35568;48.104;11.782;2023-05-17T14:55:15;3;3;
48155;PMS5003;35568;48.104;11.782;2023-05-17T14:57:42;2;2;
48155;PMS5003;35568;48.104;11.782;2023-05-17T15:00:09;2;2;
48155;PMS5003;35568;48.104;11.782;2023-05-17T15:02:37;2;2;
48155;PMS5003;35568;48.104;11.782;2023-05-17T15:05:04;2;2;
48155;PMS5003;35568;48.104;11.782;2023-05-17T15:07:31;2;1;
48155;PMS5003;35568;48.104;11.782;2023-05-17T15:09:58;2;2;
48155;PMS5003;35568;48.104;11.782;2023-05-17T15:12:25;3;3;
48155;PMS5003;35568;48.104;11.782;2023-05-17T15:14:52;3;3;
48155;PMS5003;35568;48.104;11.782;2023-05-17T15:17:19;4;4;
48155;PMS5003;35568;48.104;11.782;2023-05-17T15:19:46;4;4;
48155;PMS5003;35568;48.104;11.782;2023-05-17T15:22:13;3;3;
48155;PMS5003;35568;48.104;11.782;2023-05-17T15:24:40;5;5;
48155;PMS5003;35568;48.104;11.782;2023-05-17T15:27:07;5;5;
48155;PMS5003;35568;48.104;11.782;2023-05-17T15:29:34;3;3;
48155;PMS5003;35568;48.104;11.782;2023-05-17T15:32:01;3;3;
48155;PMS5003;35568;48.104;11.782;2023-05-17T15:34:27;3;3;
48155;PMS5003;35568;48.104;11.782;2023-05-17T15:36:54;3;3;
48155;PMS5003;35568;48.104;11.782;2023-05-17T15:39:22;6;6;
48155;PMS5003;35568;48.104;11.782;2023-05-17T15:41:49;3;3;
48155;PMS5003;35568;48.104;11.782;2023-05-17T15:44:16;4;3;
48155;PMS5003;35568;48.104;11.782;2023-05-17T15:46:43;3;3;
48155;PMS5003;35568;48.104;11.782;2023-05-17T15:49:09;4;3;
48155;PMS5003;35568;48.104;11.782;2023-05-17T15:51:37;3;2;
48155;PMS5003;35568;48.104;11.782;2023-05-17T15:54:04;6;5;
48155;PMS5003;35568;48.104;11.782;2023-05-17T15:56:31;2;2;
48155;PMS5003;35568;48.104;11.782;2023-05-17T15:58:57;4;4;
48155;PMS5003;35568;48.104;11.782;2023-05-17T16:01:24;3;3;
48155;PMS5003;35568;48.104;11.782;2023-05-17T16:03:51;4;4;
48155;PMS5003;35568;48.104;11.782;2023-05-17T16:06:18;4;4;
48155;PMS5003;35568;48.104;11.782;2023-05-17T16:08:44;3;3;
48155;PMS5003;35568;48.104;11.782;2023-05-17T16:11:11;3;3;
48155;PMS5003;35568;48.104;11.782;2023-05-17T16:13:38;4;4;
48155;PMS5003;35568;48.104;11.782;2023-05-17T16:16:05;3;2;
48155;PMS5003;35568;48.104;11.782;2023-05-17T16:18:31;4;4;
48155;PMS5003;35568;48.104;11.782;2023-05-17T16:21:00;3;3;
48155;PMS5003;35568;48.104;11.782;2023-05-17T16:23:28;4;4;
48155;PMS5003;35568;48.104;11.782;2023-05-17T16:25:54;4;3;
48155;PMS5003;35568;48.104;11.782;2023-05-17T16:28:21;4;4;
48155;PMS5003;35568;48.104;11.782;2023-05-17T16:30:49;7;6;
48155;PMS5003;35568;48.104;11.782;2023-05-17T16:33:16;4;4;
48155;PMS5003;35568;48.104;11.782;2023-05-17T16:35:43;4;4;
48155;PMS5003;35568;48.104;11.782;2023-05-17T16:38:10;2;2;